Time;durP1;ratioP1;P1;durP2;ratioP2;P2;SDS_P1;SDS_P2;PMS_P1;PMS_P2;Temp;Humidity;BMP_temperature;BMP_pressure;BME280_temperature;BME280_humidity;BME280_pressure;Samples;Min_cycle;Max_cycle;Signal;HPM_P1;HPM_P2
2023/04/20 00:00:16;;;;;;;1.08;1.08;;;18.70;68.30;;;;;;5004645;28;20073;-74
2023/04/20 00:02:42;;;;;;;0.93;0.93;;;18.70;68.40;;;;;;4991822;28;20080;-74
2023/04/20 00:05:08;;;;;;;0.98;0.98;;;18.70;68.30;;;;;;4968932;28;20073;-74
2023/04/20 00:07:34;;;;;;;0.82;0.82;;;18.70;68.30;;;;;;5021456;28;20065;-74
2023/04/20 00:10:00;;;;;;;0.80;0.80;;;18.70;69.10;;;;;;5007217;28;20091;-74
2023/04/20 00:12:25;;;;;;;1.13;1.13;;;18.70;69.10;;;;;;4988504;28;20053;-74
2023/04/20 00:14:52;;;;;;;1.10;1.10;;;18.70;68.20;;;;;;4990372;28;20046;-74
2023/04/20 00:17:17;;;;;;;0.95;0.95;;;18.70;68.20;;;;;;5005854;28;20045;-74
2023/04/20 00:19:43;;;;;;;0.85;0.85;;;18.70;68.30;;;;;;5004859;28;20049;-74
2023/04/20 00:22:08;;;;;;;0.80;0.80;;;18.70;68.40;;;;;;5005129;28;20511;-74
2023/04/20 00:24:35;;;;;;;0.80;0.80;;;18.70;68.20;;;;;;5003272;28;20060;-74
2023/04/20 00:27:00;;;;;;;0.75;0.75;;;18.70;68.30;;;;;;5007393;28;20474;-74
2023/04/20 00:29:26;;;;;;;1.23;1.15;;;18.70;68.20;;;;;;5004892;28;20657;-74
2023/04/20 00:31:51;;;;;;;0.85;0.85;;;18.70;68.20;;;;;;4989290;28;20041;-74
2023/04/20 00:34:17;;;;;;;1.05;1.05;;;18.70;68.30;;;;;;5004712;28;21836;-74
2023/04/20 00:36:43;;;;;;;0.68;0.68;;;18.70;68.30;;;;;;4985929;28;20038;-75
2023/04/20 00:39:09;;;;;;;1.00;1.00;;;18.70;68.30;;;;;;4987957;28;20113;-74
2023/04/20 00:41:34;;;;;;;0.80;0.80;;;18.60;68.30;;;;;;4996926;28;20490;-74
2023/04/20 00:44:00;;;;;;;0.90;0.90;;;18.70;68.20;;;;;;4996608;28;20495;-74
2023/04/20 00:46:26;;;;;;;0.77;0.77;;;18.70;68.20;;;;;;4995454;28;20052;-74
2023/04/20 00:48:51;;;;;;;0.95;0.95;;;18.70;68.30;;;;;;4983967;28;20030;-74
2023/04/20 00:51:17;;;;;;;1.88;1.10;;;18.70;68.20;;;;;;4951818;28;20047;-75
2023/04/20 00:53:43;;;;;;;0.90;0.80;;;18.70;68.30;;;;;;5005845;28;20499;-74
2023/04/20 00:56:08;;;;;;;0.70;0.70;;;18.60;68.20;;;;;;4969562;28;20093;-74
2023/04/20 00:58:34;;;;;;;0.98;0.98;;;18.60;68.30;;;;;;4968697;28;20405;-74
2023/04/20 01:00:59;;;;;;;0.80;0.80;;;18.60;68.40;;;;;;4986171;28;20051;-74
2023/04/20 01:03:25;;;;;;;0.77;0.77;;;18.60;68.20;;;;;;4985192;28;20054;-74
2023/04/20 01:05:50;;;;;;;0.80;0.80;;;18.60;68.40;;;;;;4953990;28;20511;-74
2023/04/20 01:08:16;;;;;;;0.90;0.90;;;18.60;68.40;;;;;;4967588;28;20082;-74
2023/04/20 01:10:42;;;;;;;1.00;1.00;;;18.60;68.30;;;;;;4985971;28;20050;-74
2023/04/20 01:13:07;;;;;;;0.70;0.70;;;18.60;68.30;;;;;;4983880;28;20046;-74
2023/04/20 01:15:34;;;;;;;0.80;0.80;;;18.60;68.30;;;;;;4984356;28;20050;-74
2023/04/20 01:17:59;;;;;;;1.00;1.00;;;18.60;68.30;;;;;;4987647;28;20125;-75
2023/04/20 01:20:25;;;;;;;0.70;0.70;;;18.60;68.30;;;;;;4984605;28;20133;-74
2023/04/20 01:22:52;;;;;;;0.90;0.90;;;18.60;68.20;;;;;;4984717;28;20034;-74
2023/04/20 01:25:19;;;;;;;1.38;0.98;;;18.60;68.30;;;;;;4981969;28;20049;-74
2023/04/20 01:27:44;;;;;;;1.45;1.00;;;18.60;68.20;;;;;;4968823;28;20543;-74
2023/04/20 01:30:10;;;;;;;0.70;0.70;;;18.60;68.20;;;;;;4986069;28;20051;-74
2023/04/20 01:32:36;;;;;;;0.90;0.90;;;18.60;68.20;;;;;;4986434;28;20035;-74
2023/04/20 01:35:02;;;;;;;0.70;0.70;;;18.60;68.20;;;;;;4986043;28;20046;-74
2023/04/20 01:37:27;;;;;;;0.80;0.80;;;18.60;68.10;;;;;;4982174;28;20528;-74
2023/04/20 01:39:53;;;;;;;0.70;0.70;;;18.60;68.10;;;;;;4982908;28;20065;-74
2023/04/20 01:42:19;;;;;;;0.95;0.95;;;18.60;68.00;;;;;;4951308;28;20090;-74
2023/04/20 01:44:44;;;;;;;0.77;0.77;;;18.60;68.00;;;;;;4983549;28;20121;-74
2023/04/20 01:47:10;;;;;;;0.80;0.80;;;18.50;68.10;;;;;;4999193;28;20042;-74
2023/04/20 01:49:35;;;;;;;0.80;0.80;;;18.50;68.00;;;;;;4992334;28;20491;-74
2023/04/20 01:52:01;;;;;;;1.00;0.93;;;18.60;68.10;;;;;;4999663;28;20058;-74
2023/04/20 01:54:27;;;;;;;0.80;0.80;;;18.60;68.00;;;;;;4968877;28;20254;-74
2023/04/20 01:56:52;;;;;;;0.80;0.80;;;18.60;68.10;;;;;;5002026;28;20045;-74
2023/04/20 01:59:18;;;;;;;0.82;0.82;;;18.50;68.00;;;;;;4983889;28;20050;-74
2023/04/20 02:01:43;;;;;;;0.88;0.88;;;18.50;67.90;;;;;;4995612;28;20096;-74
2023/04/20 02:04:09;;;;;;;0.90;0.90;;;18.50;67.90;;;;;;4985524;28;20137;-74
2023/04/20 02:06:35;;;;;;;0.80;0.80;;;18.50;68.00;;;;;;4980046;28;20049;-74
2023/04/20 02:09:00;;;;;;;0.80;0.80;;;18.50;68.00;;;;;;4982771;28;20046;-74
2023/04/20 02:11:26;;;;;;;0.73;0.73;;;18.50;67.90;;;;;;4981774;28;20038;-74
2023/04/20 02:13:51;;;;;;;0.90;0.90;;;18.50;67.90;;;;;;4982262;28;20070;-74
2023/04/20 02:16:20;;;;;;;0.63;0.63;;;18.50;67.90;;;;;;4982362;28;20042;-74
2023/04/20 02:18:46;;;;;;;0.77;0.77;;;18.50;67.90;;;;;;4983288;28;20061;-74
2023/04/20 02:21:11;;;;;;;1.00;1.00;;;18.50;67.90;;;;;;4964230;28;20046;-74
2023/04/20 02:23:37;;;;;;;0.80;0.80;;;18.50;67.90;;;;;;4983580;28;20061;-74
2023/04/20 02:26:03;;;;;;;0.80;0.80;;;18.50;67.90;;;;;;4981123;28;20149;-74
2023/04/20 02:28:29;;;;;;;0.75;0.75;;;18.50;67.90;;;;;;4982968;28;20169;-74
2023/04/20 02:30:54;;;;;;;1.27;1.20;;;18.50;67.90;;;;;;4986326;28;20534;-74
2023/04/20 02:33:20;;;;;;;0.80;0.80;;;18.50;68.00;;;;;;4984606;28;20034;-74
2023/04/20 02:35:46;;;;;;;0.60;0.60;;;18.40;67.80;;;;;;4988933;28;20045;-74
2023/04/20 02:38:11;;;;;;;0.88;0.88;;;18.50;67.90;;;;;;4982137;28;20117;-74
2023/04/20 02:40:37;;;;;;;0.90;0.90;;;18.50;67.90;;;;;;4986711;28;20042;-74
2023/04/20 02:43:03;;;;;;;0.75;0.75;;;18.50;67.90;;;;;;4982417;28;20034;-74
2023/04/20 02:45:29;;;;;;;0.90;0.90;;;18.50;67.90;;;;;;4982934;28;20050;-74
2023/04/20 02:47:55;;;;;;;0.82;0.82;;;18.40;67.90;;;;;;4987940;28;20125;-74
2023/04/20 02:50:20;;;;;;;0.80;0.80;;;18.50;67.90;;;;;;4983526;28;20077;-74
2023/04/20 02:52:46;;;;;;;0.90;0.90;;;18.50;67.90;;;;;;4983620;28;20113;-75
2023/04/20 02:55:12;;;;;;;0.88;0.88;;;18.40;68.00;;;;;;4985342;28;20057;-74
2023/04/20 02:57:37;;;;;;;0.50;0.50;;;18.40;68.00;;;;;;4992360;28;20054;-74
2023/04/20 03:00:03;;;;;;;1.10;0.85;;;18.40;67.90;;;;;;4985403;28;20042;-74
2023/04/20 03:02:29;;;;;;;0.60;0.60;;;18.40;67.90;;;;;;4996899;28;20586;-74
2023/04/20 03:04:54;;;;;;;0.75;0.70;;;18.40;67.90;;;;;;4996797;28;20388;-74
2023/04/20 03:07:20;;;;;;;0.60;0.60;;;18.40;67.90;;;;;;4994477;28;20041;-74
2023/04/20 03:09:45;;;;;;;0.50;0.50;;;18.40;67.90;;;;;;4987234;28;20053;-74
2023/04/20 03:12:11;;;;;;;0.75;0.75;;;18.40;67.90;;;;;;4981864;28;20707;-74
2023/04/20 03:14:36;;;;;;;0.73;0.73;;;18.40;67.90;;;;;;4987703;28;20101;-74
2023/04/20 03:17:02;;;;;;;0.80;0.80;;;18.40;67.80;;;;;;4986462;28;20038;-74
2023/04/20 03:19:27;;;;;;;0.60;0.60;;;18.40;68.60;;;;;;4984972;28;20511;-74
2023/04/20 03:21:53;;;;;;;1.08;1.08;;;18.40;68.70;;;;;;4985088;28;20133;-74
2023/04/20 03:24:19;;;;;;;0.70;0.70;;;18.40;67.80;;;;;;4983778;28;20042;-74
2023/04/20 03:26:44;;;;;;;0.73;0.73;;;18.40;67.90;;;;;;4982714;28;20628;-74
2023/04/20 03:29:10;;;;;;;1.67;0.90;;;18.40;68.60;;;;;;4987363;28;20069;-74
2023/04/20 03:31:35;;;;;;;0.73;0.73;;;18.40;68.00;;;;;;4986431;28;20174;-74
2023/04/20 03:34:01;;;;;;;0.90;0.90;;;18.40;67.90;;;;;;4987998;28;20412;-74
2023/04/20 03:36:30;;;;;;;1.02;1.02;;;18.40;67.90;;;;;;4984367;28;20046;-74
2023/04/20 03:38:56;;;;;;;0.80;0.80;;;18.40;67.90;;;;;;4990793;28;20062;-74
2023/04/20 03:41:21;;;;;;;0.90;0.90;;;18.40;67.90;;;;;;4988701;28;20065;-74
2023/04/20 03:43:47;;;;;;;0.90;0.90;;;18.40;67.80;;;;;;4987625;28;20042;-74
2023/04/20 03:46:12;;;;;;;0.80;0.80;;;18.30;67.80;;;;;;4989394;28;20511;-74
2023/04/20 03:48:38;;;;;;;0.90;0.90;;;18.30;67.80;;;;;;4986444;28;20116;-74
2023/04/20 03:51:04;;;;;;;0.93;0.93;;;18.30;67.70;;;;;;4987258;28;20089;-74
2023/04/20 03:53:29;;;;;;;0.75;0.75;;;18.30;67.90;;;;;;4984992;28;20057;-74
2023/04/20 03:55:55;;;;;;;0.80;0.80;;;18.30;67.70;;;;;;4986587;28;20074;-74
2023/04/20 03:58:21;;;;;;;0.70;0.70;;;18.30;67.70;;;;;;4984211;28;20498;-74
2023/04/20 04:00:47;;;;;;;0.93;0.93;;;18.30;67.70;;;;;;4982387;28;20053;-74
2023/04/20 04:03:12;;;;;;;0.80;0.80;;;18.30;67.80;;;;;;4984484;28;20066;-74
2023/04/20 04:05:39;;;;;;;1.50;0.73;;;18.30;67.70;;;;;;4986387;28;20092;-74
2023/04/20 04:08:04;;;;;;;0.90;0.90;;;18.40;67.80;;;;;;4982136;28;20053;-74
2023/04/20 04:10:30;;;;;;;0.80;0.80;;;18.30;67.70;;;;;;4999318;28;20034;-74
2023/04/20 04:12:55;;;;;;;1.05;1.05;;;18.30;67.70;;;;;;4986078;28;20566;-74
2023/04/20 04:15:21;;;;;;;0.90;0.90;;;18.30;67.70;;;;;;4986059;28;20101;-74
2023/04/20 04:17:47;;;;;;;0.90;0.90;;;18.30;67.70;;;;;;4987807;28;20049;-74
2023/04/20 04:20:13;;;;;;;0.77;0.77;;;18.30;67.60;;;;;;4981063;28;20121;-74
2023/04/20 04:22:39;;;;;;;0.60;0.60;;;18.30;67.60;;;;;;4983055;28;20046;-74
2023/04/20 04:25:06;;;;;;;0.65;0.65;;;18.30;67.60;;;;;;4996900;28;20049;-74
2023/04/20 04:27:33;;;;;;;0.70;0.70;;;18.30;67.60;;;;;;4985553;28;20046;-74
2023/04/20 04:30:03;;;;;;;0.70;0.70;;;18.30;67.70;;;;;;5000029;28;20500;-75
2023/04/20 04:32:29;;;;;;;0.75;0.75;;;18.30;67.70;;;;;;4985380;28;20566;-74
2023/04/20 04:34:54;;;;;;;0.80;0.80;;;18.30;67.60;;;;;;4983014;28;20042;-74
2023/04/20 04:37:20;;;;;;;0.82;0.82;;;18.30;67.60;;;;;;4999094;28;20350;-74
2023/04/20 04:39:46;;;;;;;0.80;0.80;;;18.30;67.50;;;;;;4985092;28;20109;-74
2023/04/20 04:42:11;;;;;;;0.65;0.65;;;18.30;67.50;;;;;;4981949;28;20034;-74
2023/04/20 04:44:38;;;;;;;0.75;0.75;;;18.30;67.50;;;;;;4982467;28;20042;-74
2023/04/20 04:47:04;;;;;;;0.75;0.75;;;18.30;67.60;;;;;;4985979;28;20133;-74
2023/04/20 04:49:31;;;;;;;0.70;0.70;;;18.30;67.50;;;;;;4984751;28;20125;-74
2023/04/20 04:51:56;;;;;;;0.63;0.63;;;18.30;67.50;;;;;;4963898;28;20092;-74
2023/04/20 04:54:22;;;;;;;0.70;0.70;;;18.30;67.50;;;;;;4982475;28;20050;-74
2023/04/20 04:56:47;;;;;;;0.70;0.70;;;18.30;67.50;;;;;;4982708;28;20516;-74
2023/04/20 04:59:13;;;;;;;0.57;0.57;;;18.20;67.40;;;;;;4985272;28;20042;-74
2023/04/20 05:01:38;;;;;;;0.68;0.68;;;18.20;67.40;;;;;;4983053;28;20061;-74
2023/04/20 05:04:04;;;;;;;0.70;0.70;;;18.20;67.40;;;;;;4987513;28;20137;-74
2023/04/20 05:06:30;;;;;;;0.80;0.80;;;18.20;67.40;;;;;;4987556;28;20527;-74
2023/04/20 05:08:55;;;;;;;0.80;0.80;;;18.20;67.30;;;;;;4988043;28;20078;-74
2023/04/20 05:11:21;;;;;;;0.80;0.80;;;18.20;67.30;;;;;;4998182;28;20130;-74
2023/04/20 05:13:47;;;;;;;0.70;0.70;;;18.30;67.40;;;;;;4967203;28;20542;-74
2023/04/20 05:16:13;;;;;;;0.60;0.60;;;18.20;67.30;;;;;;4985304;28;20038;-74
2023/04/20 05:18:38;;;;;;;1.10;1.10;;;18.30;67.40;;;;;;4992644;28;20041;-74
2023/04/20 05:21:04;;;;;;;0.80;0.80;;;18.20;67.30;;;;;;4985427;28;20089;-74
2023/04/20 05:23:29;;;;;;;0.65;0.65;;;18.20;67.20;;;;;;4949266;28;20040;-74
2023/04/20 05:25:55;;;;;;;0.80;0.80;;;18.30;67.20;;;;;;4994358;28;20037;-74
2023/04/20 05:28:20;;;;;;;0.75;0.75;;;18.20;67.20;;;;;;5003966;28;20073;-74
2023/04/20 05:30:46;;;;;;;0.70;0.68;;;18.20;67.20;;;;;;5004988;28;20041;-74
2023/04/20 05:33:11;;;;;;;1.38;0.85;;;18.20;67.10;;;;;;4985961;28;20574;-74
2023/04/20 05:35:39;;;;;;;0.80;0.80;;;18.30;66.80;;;;;;4983106;28;20446;-74
2023/04/20 05:38:05;;;;;;;1.00;1.00;;;18.30;67.00;;;;;;4981618;28;20065;-73
2023/04/20 05:40:33;;;;;;;0.70;0.70;;;18.30;66.90;;;;;;4978819;28;20070;-74
2023/04/20 05:42:58;;;;;;;0.80;0.80;;;18.30;66.80;;;;;;4984426;28;20532;-73
2023/04/20 05:45:24;;;;;;;0.80;0.80;;;18.30;67.30;;;;;;5001301;28;20045;-73
2023/04/20 05:47:53;;;;;;;0.90;0.90;;;18.30;67.10;;;;;;4987758;28;20038;-74
2023/04/20 05:50:19;;;;;;;1.15;1.15;;;18.30;67.20;;;;;;4999352;28;20072;-74
2023/04/20 05:52:45;;;;;;;0.90;0.90;;;18.30;67.30;;;;;;4968912;28;20058;-75
2023/04/20 05:55:10;;;;;;;0.70;0.70;;;18.30;67.20;;;;;;4998152;28;20042;-74
2023/04/20 05:57:41;;;;;;;3.63;1.00;;;18.30;67.70;;;;;;4984027;28;20042;-75
2023/04/20 06:00:10;;;;;;;0.93;0.93;;;18.30;67.70;;;;;;4968610;28;20117;-77
2023/04/20 06:02:35;;;;;;;1.77;1.17;;;18.40;67.70;;;;;;4984659;28;20661;-75
2023/04/20 06:05:01;;;;;;;1.52;0.98;;;18.40;68.00;;;;;;5000467;28;20123;-72
2023/04/20 06:07:26;;;;;;;0.82;0.82;;;18.40;68.20;;;;;;4981788;28;20046;-78
2023/04/20 06:09:52;;;;;;;1.00;1.00;;;18.30;68.10;;;;;;4984365;28;20042;-79
2023/04/20 06:12:17;;;;;;;3.50;0.90;;;18.30;68.10;;;;;;4983629;28;20079;-76
2023/04/20 06:14:43;;;;;;;0.95;0.77;;;18.30;68.50;;;;;;4999255;28;20069;-76
2023/04/20 06:17:08;;;;;;;2.67;0.93;;;18.30;68.40;;;;;;4645046;28;9999651;-76
2023/04/20 06:19:34;;;;;;;0.80;0.80;;;18.30;68.60;;;;;;4982146;28;20065;-76
2023/04/20 06:22:00;;;;;;;0.90;0.90;;;18.40;68.90;;;;;;4996437;28;20034;-77
2023/04/20 06:24:26;;;;;;;1.95;1.00;;;18.40;68.80;;;;;;4967475;28;20116;-77
2023/04/20 06:26:52;;;;;;;1.67;1.13;;;18.40;69.10;;;;;;4983969;28;20503;-76
2023/04/20 06:29:17;;;;;;;2.22;0.77;;;18.30;69.00;;;;;;4984654;28;20411;-76
2023/04/20 06:31:43;;;;;;;3.17;0.95;;;18.30;69.10;;;;;;4985856;28;20768;-76
2023/04/20 06:34:09;;;;;;;0.90;0.90;;;18.30;69.10;;;;;;4985828;28;20062;-76
2023/04/20 06:36:35;;;;;;;1.00;1.00;;;18.30;69.10;;;;;;4985486;28;20549;-77
2023/04/20 06:39:00;;;;;;;1.88;0.88;;;18.30;69.20;;;;;;4984453;28;20046;-77
2023/04/20 06:41:26;;;;;;;1.63;0.80;;;18.30;69.40;;;;;;4982942;28;20039;-78
2023/04/20 06:43:52;;;;;;;2.45;1.02;;;18.30;69.20;;;;;;4983620;28;20061;-77
2023/04/20 06:46:17;;;;;;;1.65;1.08;;;18.30;69.20;;;;;;4983194;28;20073;-76
2023/04/20 06:48:43;;;;;;;1.85;0.80;;;18.30;69.20;;;;;;4967583;28;20069;-77
2023/04/20 06:51:08;;;;;;;1.35;0.85;;;18.30;69.10;;;;;;4984317;28;20046;-77
2023/04/20 06:53:34;;;;;;;1.15;1.05;;;18.30;69.00;;;;;;4974426;28;20170;-77
2023/04/20 06:55:59;;;;;;;0.80;0.80;;;18.30;68.90;;;;;;5017276;28;20077;-77
2023/04/20 06:58:25;;;;;;;1.20;0.98;;;18.30;68.80;;;;;;4989376;28;20072;-77
2023/04/20 07:00:50;;;;;;;1.40;1.02;;;18.30;68.80;;;;;;4992505;28;20518;-77
2023/04/20 07:03:17;;;;;;;1.67;0.90;;;18.30;68.80;;;;;;4965728;28;20055;-77
2023/04/20 07:05:43;;;;;;;1.23;1.13;;;18.30;68.70;;;;;;4982453;28;20038;-77
2023/04/20 07:08:09;;;;;;;1.60;1.10;;;18.30;68.70;;;;;;4980129;28;20393;-76
2023/04/20 07:10:34;;;;;;;1.10;0.90;;;18.30;68.50;;;;;;4969050;28;20526;-76
2023/04/20 07:13:00;;;;;;;0.80;0.80;;;18.30;68.50;;;;;;4983986;28;20440;-76
2023/04/20 07:15:25;;;;;;;0.80;0.80;;;18.30;68.40;;;;;;4987433;28;20067;-76
2023/04/20 07:17:51;;;;;;;1.83;1.00;;;18.30;68.30;;;;;;4984893;28;20053;-76
2023/04/20 07:20:17;;;;;;;1.90;0.80;;;18.30;68.40;;;;;;4986888;28;20042;-76
2023/04/20 07:22:42;;;;;;;0.70;0.70;;;18.30;68.30;;;;;;4982637;28;20046;-77
2023/04/20 07:25:08;;;;;;;1.02;0.80;;;18.30;68.20;;;;;;4986487;28;20049;-76
2023/04/20 07:27:35;;;;;;;0.90;0.90;;;18.30;68.10;;;;;;4981161;28;20045;-77
2023/04/20 07:30:01;;;;;;;0.82;0.82;;;18.30;68.00;;;;;;4983178;28;20062;-77
2023/04/20 07:32:26;;;;;;;1.42;0.90;;;18.30;68.10;;;;;;4996641;28;20444;-76
2023/04/20 07:34:52;;;;;;;0.60;0.60;;;18.30;68.00;;;;;;4984907;28;20473;-77
2023/04/20 07:37:18;;;;;;;0.90;0.90;;;18.30;67.90;;;;;;4985459;28;20035;-76
2023/04/20 07:39:43;;;;;;;0.98;0.68;;;18.30;67.80;;;;;;4981709;28;20130;-77
2023/04/20 07:42:09;;;;;;;0.70;0.70;;;18.30;67.60;;;;;;4983974;28;20049;-77
2023/04/20 07:44:35;;;;;;;0.90;0.63;;;18.30;67.60;;;;;;4985670;28;20546;-77
2023/04/20 07:47:01;;;;;;;1.13;1.02;;;18.30;67.50;;;;;;4983162;28;20101;-76
2023/04/20 07:49:27;;;;;;;0.68;0.68;;;18.30;67.50;;;;;;4994021;28;20054;-76
2023/04/20 07:51:53;;;;;;;0.95;0.63;;;18.30;67.40;;;;;;4985551;28;20049;-77
2023/04/20 07:54:19;;;;;;;0.75;0.65;;;18.30;67.40;;;;;;4985950;28;20042;-77
2023/04/20 07:56:44;;;;;;;0.50;0.40;;;18.30;68.20;;;;;;4983512;28;20043;-77
2023/04/20 07:59:10;;;;;;;1.10;0.80;;;18.40;67.40;;;;;;4985509;28;20069;-77
2023/04/20 08:01:36;;;;;;;0.60;0.60;;;18.40;67.30;;;;;;4988320;28;20054;-78
2023/04/20 08:04:01;;;;;;;0.60;0.60;;;18.40;67.30;;;;;;5004873;28;20403;-76
2023/04/20 08:06:27;;;;;;;0.60;0.60;;;18.40;67.30;;;;;;5005777;28;20054;-77
2023/04/20 08:08:52;;;;;;;0.75;0.70;;;18.40;67.30;;;;;;5005465;28;20053;-77
2023/04/20 08:11:18;;;;;;;1.13;0.63;;;18.40;67.20;;;;;;5006797;28;20049;-77
2023/04/20 08:13:44;;;;;;;0.68;0.68;;;18.40;67.20;;;;;;4988409;28;20537;-76
2023/04/20 08:16:09;;;;;;;0.70;0.70;;;18.50;67.30;;;;;;5005087;28;20511;-76
2023/04/20 08:18:36;;;;;;;0.52;0.52;;;18.40;67.20;;;;;;5004001;28;20132;-78
2023/04/20 08:21:01;;;;;;;0.60;0.60;;;18.50;67.20;;;;;;4989192;28;20464;-77
2023/04/20 08:23:27;;;;;;;2.67;0.80;;;18.50;67.10;;;;;;5007102;28;20034;-77
2023/04/20 08:25:53;;;;;;;0.50;0.50;;;18.50;67.00;;;;;;4972395;28;20458;-76
2023/04/20 08:28:20;;;;;;;0.80;0.80;;;18.60;67.00;;;;;;4972821;28;20089;-77
2023/04/20 08:30:45;;;;;;;0.60;0.60;;;18.50;67.00;;;;;;5007513;28;20045;-77
2023/04/20 08:33:11;;;;;;;0.75;0.75;;;18.60;66.90;;;;;;5006043;28;20104;-77
2023/04/20 08:35:37;;;;;;;0.50;0.50;;;18.60;66.80;;;;;;4988378;28;20046;-78
2023/04/20 08:38:02;;;;;;;0.57;0.57;;;18.60;66.70;;;;;;5001136;28;20090;-77
2023/04/20 08:40:29;;;;;;;0.80;0.80;;;18.60;66.70;;;;;;5005974;28;20450;-77
2023/04/20 08:42:55;;;;;;;0.50;0.50;;;18.60;66.60;;;;;;5001994;28;20411;-77
2023/04/20 08:45:21;;;;;;;0.60;0.60;;;18.60;66.60;;;;;;4972377;28;20092;-77
2023/04/20 08:47:47;;;;;;;0.60;0.60;;;18.70;66.60;;;;;;5002513;28;20046;-77
2023/04/20 08:50:13;;;;;;;0.90;0.90;;;18.60;66.50;;;;;;4988023;28;20053;-78
2023/04/20 08:52:38;;;;;;;0.70;0.70;;;18.70;67.20;;;;;;4972233;28;20129;-78
2023/04/20 08:55:06;;;;;;;0.52;0.52;;;18.70;66.30;;;;;;5006145;28;20064;-78
2023/04/20 08:57:32;;;;;;;0.50;0.50;;;18.70;66.20;;;;;;5004152;28;20030;-77
2023/04/20 08:59:57;;;;;;;0.50;0.50;;;18.70;66.90;;;;;;4986545;28;20050;-76
2023/04/20 09:02:23;;;;;;;0.60;0.60;;;18.80;66.00;;;;;;5020389;28;20041;-78
2023/04/20 09:04:48;;;;;;;0.65;0.65;;;18.80;66.10;;;;;;4987457;28;20664;-78
2023/04/20 09:07:18;;;;;;;0.70;0.70;;;18.80;65.90;;;;;;4970484;28;20053;-77
2023/04/20 09:09:54;;;;;;;0.60;0.60;;;18.80;66.00;;;;;;4985684;28;20045;-77
2023/04/20 09:12:20;;;;;;;0.70;0.70;;;18.90;66.40;;;;;;4970208;28;20528;-78
2023/04/20 09:14:46;;;;;;;0.98;0.57;;;18.90;65.70;;;;;;4984272;28;20074;-78
2023/04/20 09:17:16;;;;;;;0.50;0.50;;;18.90;65.80;;;;;;4982464;28;20042;-78
2023/04/20 09:19:45;;;;;;;0.52;0.52;;;18.90;65.70;;;;;;4981019;28;20057;-79
2023/04/20 09:22:11;;;;;;;0.52;0.52;;;19.00;65.70;;;;;;4987083;28;20033;-78
2023/04/20 09:24:37;;;;;;;0.60;0.50;;;19.00;65.70;;;;;;4955791;28;20046;-77
2023/04/20 09:27:14;;;;;;;0.50;0.50;;;19.00;65.60;;;;;;4966188;28;20507;-78
2023/04/20 09:29:39;;;;;;;1.00;0.60;;;19.10;65.60;;;;;;5015327;28;20053;-79
2023/04/20 09:32:05;;;;;;;0.70;0.70;;;19.10;65.70;;;;;;4989237;28;20037;-78
2023/04/20 09:34:30;;;;;;;0.70;0.70;;;19.10;65.50;;;;;;4997594;28;20034;-77
2023/04/20 09:36:56;;;;;;;0.47;0.47;;;19.10;65.50;;;;;;4966884;28;20482;-77
2023/04/20 09:39:23;;;;;;;0.50;0.50;;;19.10;65.50;;;;;;5001684;28;20066;-77
2023/04/20 09:41:49;;;;;;;0.55;0.55;;;19.10;65.50;;;;;;5000506;28;20444;-77
2023/04/20 09:44:15;;;;;;;0.50;0.50;;;19.20;65.50;;;;;;4982450;28;20065;-78
2023/04/20 09:46:41;;;;;;;0.50;0.50;;;19.20;65.30;;;;;;4981880;28;20117;-78
2023/04/20 09:49:08;;;;;;;0.60;0.60;;;19.20;65.20;;;;;;4999212;28;20522;-77
2023/04/20 09:51:35;;;;;;;0.40;0.40;;;19.20;65.20;;;;;;4984712;28;20524;-77
2023/04/20 09:54:01;;;;;;;0.65;0.65;;;19.20;65.20;;;;;;5000964;28;20053;-78
2023/04/20 09:56:27;;;;;;;1.58;0.70;;;19.30;65.20;;;;;;4985818;28;20034;-78
2023/04/20 09:58:53;;;;;;;0.40;0.40;;;19.30;65.90;;;;;;4999357;28;20408;-77
2023/04/20 10:01:19;;;;;;;0.50;0.50;;;19.30;65.00;;;;;;4983292;28;20225;-78
2023/04/20 10:03:44;;;;;;;0.45;0.40;;;19.30;65.00;;;;;;4982471;28;20039;-77
2023/04/20 10:06:23;;;;;;;0.70;0.70;;;19.30;65.00;;;;;;5003500;28;20054;-77
2023/04/20 10:08:50;;;;;;;0.50;0.50;;;19.40;65.10;;;;;;4983074;28;20089;-77
2023/04/20 10:11:28;;;;;;;1.05;0.60;;;19.40;65.00;;;;;;4977809;28;20124;-77
2023/04/20 10:13:54;;;;;;;0.73;0.70;;;19.40;65.00;;;;;;4998729;28;20046;-78
2023/04/20 10:16:20;;;;;;;0.52;0.52;;;19.40;65.00;;;;;;4990046;28;20074;-78
2023/04/20 10:18:59;;;;;;;0.50;0.50;;;19.40;64.90;;;;;;4978411;28;20123;-78
2023/04/20 10:21:25;;;;;;;0.68;0.68;;;19.40;64.80;;;;;;4996070;28;20054;-76
2023/04/20 10:23:51;;;;;;;0.60;0.60;;;19.40;64.80;;;;;;4971248;28;20049;-76
2023/04/20 10:26:16;;;;;;;0.77;0.60;;;19.40;65.50;;;;;;4959086;28;20677;-76
2023/04/20 10:28:43;;;;;;;1.15;0.65;;;19.40;64.70;;;;;;4969069;28;20076;-76
2023/04/20 10:31:12;;;;;;;0.60;0.60;;;19.40;64.60;;;;;;4976884;28;20069;-76
2023/04/20 10:34:07;;;;;;;0.55;0.55;;;19.50;64.70;;;;;;4979628;28;20047;-76
2023/04/20 10:36:36;;;;;;;0.95;0.93;;;19.50;64.60;;;;;;4970515;28;20115;-76
2023/04/20 10:39:15;;;;;;;0.57;0.57;;;19.50;64.50;;;;;;4984213;28;20045;-76
2023/04/20 10:41:54;;;;;;;0.60;0.60;;;19.50;64.60;;;;;;4964759;28;20042;-77
2023/04/20 10:44:20;;;;;;;0.43;0.43;;;19.50;64.70;;;;;;4964644;28;20053;-76
2023/04/20 10:46:49;;;;;;;0.47;0.47;;;19.50;64.80;;;;;;4981466;28;20539;-77
2023/04/20 10:49:15;;;;;;;0.60;0.60;;;19.50;64.80;;;;;;4984947;28;20435;-76
2023/04/20 10:51:48;;;;;;;1.15;0.70;;;19.50;64.70;;;;;;4975005;28;20053;-77
2023/04/20 10:54:14;;;;;;;0.47;0.47;;;19.50;64.60;;;;;;4997330;28;20516;-76
2023/04/20 10:56:40;;;;;;;0.50;0.50;;;19.50;64.70;;;;;;5003153;28;20077;-76
2023/04/20 10:59:07;;;;;;;0.47;0.47;;;19.50;64.80;;;;;;4980718;28;20048;-76
2023/04/20 11:01:33;;;;;;;0.45;0.45;;;19.50;64.80;;;;;;4964142;28;20141;-76
2023/04/20 11:03:59;;;;;;;0.55;0.55;;;19.50;64.80;;;;;;4983397;28;20065;-77
2023/04/20 11:06:24;;;;;;;0.50;0.50;;;19.50;64.70;;;;;;4995948;28;20057;-76
2023/04/20 11:08:50;;;;;;;0.50;0.50;;;19.50;64.80;;;;;;4978663;28;20042;-76
2023/04/20 11:11:29;;;;;;;0.50;0.50;;;19.60;64.70;;;;;;4961270;28;22978;-76
2023/04/20 11:14:08;;;;;;;0.40;0.40;;;19.50;64.80;;;;;;4989651;28;20035;-76
2023/04/20 11:16:33;;;;;;;0.60;0.55;;;19.60;64.80;;;;;;4976055;28;20038;-76
2023/04/20 11:18:59;;;;;;;0.60;0.60;;;19.60;64.80;;;;;;4961007;28;20073;-76
2023/04/20 11:21:37;;;;;;;0.68;0.65;;;19.60;64.70;;;;;;4968321;28;20140;-76
2023/04/20 11:24:05;;;;;;;0.45;0.30;;;19.60;64.70;;;;;;4981254;28;20053;-76
2023/04/20 11:26:37;;;;;;;0.60;0.60;;;19.60;64.70;;;;;;4980968;28;20098;-76
2023/04/20 11:29:02;;;;;;;0.30;0.30;;;19.60;64.80;;;;;;4950380;28;20073;-76
2023/04/20 11:31:29;;;;;;;0.50;0.50;;;19.60;64.80;;;;;;4979336;28;20062;-76
2023/04/20 11:33:54;;;;;;;0.60;0.60;;;19.50;65.50;;;;;;4981400;28;20495;-77
2023/04/20 11:36:21;;;;;;;0.40;0.40;;;19.60;64.60;;;;;;4941307;28;20091;-76
2023/04/20 11:38:46;;;;;;;1.13;0.40;;;19.60;64.60;;;;;;4983344;28;20046;-77
2023/04/20 11:41:12;;;;;;;0.60;0.60;;;19.60;64.60;;;;;;4984412;28;20105;-76
2023/04/20 11:43:38;;;;;;;0.50;0.50;;;19.60;64.60;;;;;;4982445;28;20048;-75
2023/04/20 11:46:20;;;;;;;0.50;0.50;;;19.60;64.60;;;;;;4970898;28;20455;-76
2023/04/20 11:48:46;;;;;;;0.50;0.50;;;19.60;66.80;;;;;;4982081;28;20050;-76
2023/04/20 11:51:12;;;;;;;0.32;0.30;;;19.60;66.30;;;;;;4994807;28;20056;-74
2023/04/20 11:53:38;;;;;;;0.68;0.68;;;19.60;66.10;;;;;;4973204;28;20035;-78
2023/04/20 11:56:04;;;;;;;0.80;0.80;;;19.70;69.10;;;;;;4983524;28;20046;-78
2023/04/20 11:58:29;;;;;;;0.50;0.50;;;19.70;67.40;;;;;;4984068;28;20050;-75
2023/04/20 12:00:55;;;;;;;0.60;0.60;;;19.70;66.30;;;;;;4983040;28;20152;-76
2023/04/20 12:03:21;;;;;;;0.60;0.60;;;19.80;67.90;;;;;;4951247;28;20042;-77
2023/04/20 12:05:47;;;;;;;0.45;0.45;;;19.80;67.50;;;;;;4981870;28;20411;-77
2023/04/20 12:08:12;;;;;;;0.55;0.55;;;19.80;67.00;;;;;;4962001;28;20030;-76
2023/04/20 12:10:38;;;;;;;0.70;0.70;;;19.80;66.10;;;;;;4996151;28;20038;-76
2023/04/20 12:13:04;;;;;;;0.80;0.80;;;19.70;66.30;;;;;;4946942;28;20523;-76
2023/04/20 12:15:30;;;;;;;0.80;0.80;;;19.80;67.30;;;;;;4968133;28;20046;-77
2023/04/20 12:17:56;;;;;;;0.60;0.50;;;19.80;66.40;;;;;;4987121;28;20077;-75
2023/04/20 12:20:21;;;;;;;0.63;0.50;;;19.80;66.50;;;;;;4987812;28;20639;-77
2023/04/20 12:22:47;;;;;;;1.42;0.80;;;19.80;66.30;;;;;;4999064;28;20030;-78
2023/04/20 12:25:12;;;;;;;0.90;0.90;;;19.80;65.40;;;;;;4990302;28;20524;-76
2023/04/20 12:27:38;;;;;;;1.88;0.88;;;19.70;63.20;;;;;;4966074;28;20067;-76
2023/04/20 12:30:04;;;;;;;2.15;0.80;;;19.70;63.70;;;;;;4974855;28;20753;-78
2023/04/20 12:32:30;;;;;;;0.80;0.80;;;19.70;61.90;;;;;;4987194;28;20064;-77
2023/04/20 12:34:56;;;;;;;1.25;1.02;;;19.70;62.30;;;;;;4977788;28;20514;-79
2023/04/20 12:37:21;;;;;;;0.82;0.82;;;19.70;61.30;;;;;;4986121;28;20050;-79
2023/04/20 12:39:47;;;;;;;2.47;0.80;;;19.70;57.90;;;;;;4983536;28;20043;-79
2023/04/20 12:42:13;;;;;;;0.90;0.90;;;19.70;59.80;;;;;;4982319;28;20133;-79